createdAt,value
2023-01-04T00:01:52.183Z,101300.41
2023-01-04T00:04:18.663Z,101304.59
2023-01-04T00:06:45.166Z,101293.50
2023-01-04T00:09:11.637Z,101293.06
2023-01-04T00:11:38.165Z,101284.72
2023-01-04T00:14:04.752Z,101282.25
2023-01-04T00:16:31.625Z,101288.75
2023-01-04T00:18:58.863Z,101279.25
2023-01-04T00:21:28.014Z,101288.22
2023-01-04T00:23:57.314Z,101292.84
2023-01-04T00:26:29.877Z,101278.81
2023-01-04T00:28:58.438Z,101288.75
2023-01-04T00:31:26.209Z,101289.34
2023-01-04T00:33:57.807Z,101280.53
2023-01-04T00:36:25.490Z,101285.31
2023-01-04T00:39:07.910Z,101277.66
2023-01-04T00:41:57.971Z,101289.44
2023-01-04T00:44:22.583Z,101275.03
2023-01-04T00:46:49.151Z,101273.03
2023-01-04T00:49:15.768Z,101271.22
2023-01-04T00:51:42.703Z,101267.16
2023-01-04T00:54:13.368Z,101273.00
2023-01-04T00:56:39.938Z,101282.28
2023-01-04T00:59:06.573Z,101288.22
2023-01-04T01:01:34.286Z,101283.56
2023-01-04T01:04:03.246Z,101289.75
2023-01-04T01:06:32.321Z,101271.81
2023-01-04T01:08:59.660Z,101275.72
2023-01-04T01:11:26.710Z,101277.03
2023-01-04T01:13:53.467Z,101284.41
2023-01-04T01:16:44.351Z,101280.81
2023-01-04T01:19:09.689Z,101279.56
2023-01-04T01:21:38.007Z,101280.44
2023-01-04T01:24:05.355Z,101277.66
2023-01-04T01:26:32.064Z,101274.47
2023-01-04T01:28:59.487Z,101275.59
2023-01-04T01:31:28.043Z,101271.63
2023-01-04T01:33:56.963Z,101265.59
2023-01-04T01:36:25.627Z,101260.31
2023-01-04T01:38:52.327Z,101259.88
2023-01-04T01:41:25.736Z,101250.59
2023-01-04T01:43:54.052Z,101248.09
2023-01-04T01:46:34.191Z,101244.25
2023-01-04T01:49:30.200Z,101237.78
2023-01-04T01:52:00.025Z,101238.56
2023-01-04T01:54:31.464Z,101235.50
2023-01-04T01:57:01.223Z,101230.41
2023-01-04T01:59:30.132Z,101236.53
2023-01-04T02:01:57.188Z,101228.31
2023-01-04T02:04:24.126Z,101231.59
2023-01-04T02:06:55.216Z,101228.81
2023-01-04T02:09:23.285Z,101227.91
2023-01-04T02:11:49.864Z,101221.56
2023-01-04T02:14:27.489Z,101225.16
2023-01-04T02:16:59.989Z,101229.81
2023-01-04T02:20:00.690Z,101216.78
2023-01-04T02:22:39.153Z,101225.34
2023-01-04T02:25:30.735Z,101213.38
2023-01-04T02:28:03.015Z,101204.63
2023-01-04T02:31:12.766Z,101202.34
2023-01-04T02:34:17.057Z,101196.59
2023-01-04T02:37:11.952Z,101198.09
2023-01-04T02:40:03.799Z,101194.63
2023-01-04T02:42:58.803Z,101188.44
2023-01-04T02:45:31.606Z,101174.44
2023-01-04T02:48:22.759Z,101180.53
2023-01-04T02:50:54.254Z,101177.25
2023-01-04T02:53:33.515Z,101178.47
2023-01-04T02:56:18.454Z,101179.84
2023-01-04T02:59:03.818Z,101173.00
2023-01-04T03:02:19.274Z,101175.34
2023-01-04T03:05:43.566Z,101160.38
2023-01-04T03:08:17.129Z,101158.84
2023-01-04T03:11:35.744Z,101162.94
2023-01-04T03:14:32.390Z,101144.75
2023-01-04T03:17:04.581Z,101142.97
2023-01-04T03:19:50.715Z,101147.53
2023-01-04T03:22:40.547Z,101137.59
2023-01-04T03:25:27.518Z,101140.69
2023-01-04T03:28:14.037Z,101130.16
2023-01-04T03:31:27.022Z,101133.31
2023-01-04T03:34:12.195Z,101126.88
2023-01-04T03:37:08.166Z,101122.59
2023-01-04T03:40:04.625Z,101115.03
2023-01-04T03:43:15.865Z,101114.34
2023-01-04T03:46:10.406Z,101116.72
2023-01-04T03:48:45.761Z,101113.34
2023-01-04T03:51:33.910Z,101108.88
2023-01-04T03:54:11.860Z,101096.19
2023-01-04T03:56:42.257Z,101099.84
2023-01-04T03:59:09.790Z,101096.97
2023-01-04T04:01:37.415Z,101087.69
2023-01-04T04:04:23.014Z,101078.97
2023-01-04T04:07:08.300Z,101078.97
2023-01-04T04:09:35.439Z,101067.38
2023-01-04T04:12:01.936Z,101063.56
2023-01-04T04:14:28.532Z,101066.06
2023-01-04T04:16:55.172Z,101065.69
2023-01-04T04:19:22.194Z,101063.00
2023-01-04T04:21:48.707Z,101055.03
2023-01-04T04:24:27.353Z,101058.09
2023-01-04T04:26:55.394Z,101064.88
2023-01-04T04:29:23.326Z,101057.22
2023-01-04T04:31:50.218Z,101066.66
2023-01-04T04:34:16.762Z,101053.63
2023-01-04T04:36:43.416Z,101061.19
2023-01-04T04:39:11.429Z,101060.28
2023-01-04T04:41:38.936Z,101060.47
2023-01-04T04:44:07.069Z,101062.47
2023-01-04T04:46:33.574Z,101057.59
2023-01-04T04:49:00.700Z,101050.91
2023-01-04T04:51:27.477Z,101045.38
2023-01-04T04:53:54.209Z,101051.72
2023-01-04T04:56:20.919Z,101049.34
2023-01-04T04:58:48.263Z,101045.66
2023-01-04T05:01:15.583Z,101038.34
2023-01-04T05:03:42.245Z,101035.06
2023-01-04T05:06:08.826Z,101022.38
2023-01-04T05:08:35.969Z,101014.72
2023-01-04T05:11:12.861Z,101014.91
2023-01-04T05:13:39.988Z,101021.28
2023-01-04T05:16:08.210Z,101009.28
2023-01-04T05:18:34.986Z,101003.50
2023-01-04T05:21:02.752Z,101008.88
2023-01-04T05:23:29.316Z,101005.78
2023-01-04T05:26:03.741Z,100994.66
2023-01-04T05:28:30.296Z,100987.53
2023-01-04T05:30:57.254Z,100987.81
2023-01-04T05:33:26.605Z,101000.50
2023-01-04T05:35:54.359Z,100988.22
2023-01-04T05:38:22.047Z,100988.69
2023-01-04T05:40:49.148Z,100983.56
2023-01-04T05:43:17.260Z,100989.00
2023-01-04T05:45:46.984Z,100982.13
2023-01-04T05:48:13.529Z,100976.00
2023-01-04T05:50:40.110Z,100975.41
2023-01-04T05:53:06.901Z,100975.91
2023-01-04T05:55:33.882Z,100965.19
2023-01-04T05:58:00.958Z,100966.94
2023-01-04T06:00:27.700Z,100960.94
2023-01-04T06:02:55.597Z,100961.16
2023-01-04T06:05:22.635Z,100950.84
2023-01-04T06:07:49.536Z,100957.78
2023-01-04T06:10:16.388Z,100967.81
2023-01-04T06:12:42.938Z,100959.19
2023-01-04T06:15:11.265Z,100962.09
2023-01-04T06:17:38.968Z,100953.94
2023-01-04T06:20:09.561Z,100948.28
2023-01-04T06:22:36.835Z,100953.16
2023-01-04T06:25:03.985Z,100936.78
2023-01-04T06:27:30.503Z,100930.41
2023-01-04T06:29:57.100Z,100924.72
2023-01-04T06:32:23.655Z,100914.47
2023-01-04T06:34:50.259Z,100908.38
2023-01-04T06:37:16.801Z,100908.34
2023-01-04T06:39:43.410Z,100894.56
2023-01-04T06:42:29.923Z,100885.84
2023-01-04T06:44:56.497Z,100896.44
2023-01-04T06:47:23.009Z,100887.88
2023-01-04T06:49:49.606Z,100885.22
2023-01-04T06:52:17.250Z,100883.50
2023-01-04T06:54:43.781Z,100881.13
2023-01-04T06:57:10.268Z,100882.16
2023-01-04T06:59:36.740Z,100877.47
2023-01-04T07:02:03.423Z,100879.16
2023-01-04T07:04:30.099Z,100878.50
2023-01-04T07:06:57.876Z,100870.41
2023-01-04T07:09:24.417Z,100868.19
2023-01-04T07:11:50.939Z,100861.31
2023-01-04T07:14:17.439Z,100859.34
2023-01-04T07:16:43.978Z,100849.16
2023-01-04T07:19:10.529Z,100844.38
2023-01-04T07:21:37.122Z,100838.34
2023-01-04T07:24:03.703Z,100841.69
2023-01-04T07:26:30.230Z,100843.47
2023-01-04T07:29:14.737Z,100833.50
2023-01-04T07:31:42.345Z,100839.69
2023-01-04T07:34:09.166Z,100840.88
2023-01-04T07:36:35.817Z,100825.25
2023-01-04T07:39:03.083Z,100837.63
2023-01-04T07:41:29.623Z,100821.84
2023-01-04T07:43:56.149Z,100817.34
2023-01-04T07:46:22.764Z,100816.94
2023-01-04T07:48:49.270Z,100827.75
2023-01-04T07:51:16.272Z,100842.09
2023-01-04T07:53:42.742Z,100844.19
2023-01-04T07:56:12.411Z,100833.16
2023-01-04T07:58:43.411Z,100821.34
2023-01-04T08:01:13.339Z,100818.09
2023-01-04T08:03:40.200Z,100821.81
2023-01-04T08:06:08.899Z,100812.50
2023-01-04T08:08:35.611Z,100815.75
2023-01-04T08:11:03.393Z,100823.53
2023-01-04T08:13:30.380Z,100809.47
2023-01-04T08:15:59.805Z,100805.31
2023-01-04T08:18:26.382Z,100805.78
2023-01-04T08:21:22.260Z,100801.34
2023-01-04T08:23:48.820Z,100808.03
2023-01-04T08:26:16.464Z,100788.31
2023-01-04T08:28:44.081Z,100776.53
2023-01-04T08:31:15.976Z,100781.22
2023-01-04T08:33:43.133Z,100776.41
2023-01-04T08:36:19.594Z,100768.94
2023-01-04T08:38:59.934Z,100767.81
2023-01-04T08:44:13.892Z,100753.44
2023-01-04T08:46:40.445Z,100750.41
2023-01-04T08:49:07.111Z,100741.59
2023-01-04T08:51:33.714Z,100732.50
2023-01-04T08:54:00.199Z,100740.59
2023-01-04T08:56:26.681Z,100740.66
2023-01-04T08:58:53.212Z,100733.28
2023-01-04T09:01:19.800Z,100726.47
2023-01-04T09:03:46.455Z,100727.47
2023-01-04T09:06:14.962Z,100720.69
2023-01-04T09:08:42.813Z,100715.09
2023-01-04T09:11:13.678Z,100708.66
2023-01-04T09:13:40.607Z,100705.16
2023-01-04T09:16:10.232Z,100701.44
2023-01-04T09:18:37.012Z,100684.91
2023-01-04T09:21:07.866Z,100684.09
2023-01-04T09:23:35.005Z,100679.63
2023-01-04T09:26:10.015Z,100671.09
2023-01-04T09:28:37.351Z,100662.63
2023-01-04T09:31:08.669Z,100658.25
2023-01-04T09:34:04.109Z,100645.41
2023-01-04T09:36:24.026Z,100638.59
2023-01-04T09:38:52.276Z,100635.28
2023-01-04T09:41:37.959Z,100625.91
2023-01-04T09:44:11.464Z,100621.81
2023-01-04T09:46:44.665Z,100621.91
2023-01-04T09:49:20.311Z,100606.66
2023-01-04T09:52:10.687Z,100605.03
2023-01-04T09:54:46.590Z,100603.50
2023-01-04T09:57:26.039Z,100595.06
2023-01-04T10:00:00.129Z,100576.75
2023-01-04T10:02:38.786Z,100582.16
2023-01-04T10:05:07.055Z,100578.78
2023-01-04T10:07:34.572Z,100559.91
2023-01-04T10:10:01.616Z,100557.69
2023-01-04T10:12:48.125Z,100549.00
2023-01-04T10:15:26.321Z,100542.00
2023-01-04T10:21:28.301Z,100512.00
2023-01-04T10:24:29.316Z,100502.91
2023-01-04T10:27:10.154Z,100504.53
2023-01-04T10:29:39.836Z,100504.66
2023-01-04T10:32:22.619Z,100499.94
2023-01-04T10:34:49.211Z,100491.88
2023-01-04T10:37:23.645Z,100484.50
2023-01-04T10:39:57.337Z,100475.56
2023-01-04T10:42:34.401Z,100466.56
2023-01-04T10:45:31.926Z,100459.56
2023-01-04T10:48:03.523Z,100449.03
2023-01-04T10:50:40.195Z,100449.03
2023-01-04T10:53:25.982Z,100449.00
2023-01-04T10:56:26.154Z,100442.03
2023-01-04T10:59:25.662Z,100447.13
2023-01-04T11:02:00.377Z,100423.50
2023-01-04T11:04:32.463Z,100430.56
2023-01-04T11:07:15.856Z,100438.50
2023-01-04T11:09:50.477Z,100423.56
2023-01-04T11:12:19.699Z,100406.97
2023-01-04T11:14:46.180Z,100404.34
2023-01-04T11:17:13.115Z,100392.94
2023-01-04T11:19:40.772Z,100390.31
2023-01-04T11:22:25.809Z,100392.16
2023-01-04T11:25:33.899Z,100383.47
2023-01-04T11:28:12.281Z,100372.06
2023-01-04T11:30:48.843Z,100362.50
2023-01-04T11:33:20.885Z,100346.78
2023-01-04T11:35:53.354Z,100338.94
2023-01-04T11:38:22.179Z,100339.00
2023-01-04T11:41:00.883Z,100317.19
2023-01-04T11:43:32.252Z,100312.00
2023-01-04T11:46:22.723Z,100306.72
2023-01-04T11:48:49.269Z,100310.19
2023-01-04T11:51:27.621Z,100300.41
2023-01-04T11:54:20.524Z,100294.16
2023-01-04T11:57:10.745Z,100294.00
2023-01-04T11:59:37.904Z,100287.81
2023-01-04T12:05:28.920Z,100262.19
2023-01-04T12:07:56.017Z,100262.84
2023-01-04T12:10:27.298Z,100269.69
2023-01-04T12:12:55.400Z,100259.16
2023-01-04T12:15:32.441Z,100250.28
2023-01-04T12:18:15.601Z,100245.81
2023-01-04T12:20:42.078Z,100221.25
2023-01-04T12:23:11.974Z,100230.88
2023-01-04T12:25:45.419Z,100208.25
2023-01-04T12:28:32.561Z,100206.50
2023-01-04T12:31:22.011Z,100197.03
2023-01-04T12:33:50.169Z,100177.06
2023-01-04T12:36:21.516Z,100189.31
2023-01-04T12:39:02.202Z,100194.63
2023-01-04T12:41:34.794Z,100199.13
2023-01-04T12:44:02.989Z,100187.09
2023-01-04T12:46:48.225Z,100174.09
2023-01-04T12:49:26.631Z,100184.69
2023-01-04T12:55:00.680Z,100176.03
2023-01-04T12:57:38.054Z,100176.81
2023-01-04T13:00:08.402Z,100168.84
2023-01-04T13:02:51.307Z,100147.81
2023-01-04T13:08:11.226Z,100145.66
2023-01-04T13:10:51.642Z,100133.31
2023-01-04T13:13:42.041Z,100121.50
2023-01-04T13:16:26.880Z,100115.41
2023-01-04T13:18:59.766Z,100109.41
2023-01-04T13:21:41.589Z,100108.34
2023-01-04T13:24:28.556Z,100095.06
2023-01-04T13:26:55.255Z,100076.56
2023-01-04T13:29:29.155Z,100077.41
2023-01-04T13:32:05.944Z,100065.09
2023-01-04T13:34:32.429Z,100065.91
2023-01-04T13:37:12.358Z,100072.94
2023-01-04T13:39:40.459Z,100072.09
2023-01-04T13:42:16.210Z,100074.75
2023-01-04T13:45:20.851Z,100084.09
2023-01-04T13:47:51.209Z,100091.13
2023-01-04T13:50:40.181Z,100084.97
2023-01-04T13:53:08.727Z,100075.34
2023-01-04T13:55:38.359Z,100066.72
2023-01-04T13:58:07.745Z,100058.88
2023-01-04T14:00:48.586Z,100059.81
2023-01-04T14:03:42.921Z,100063.31
2023-01-04T14:06:09.454Z,100053.72
2023-01-04T14:08:41.702Z,100047.56
2023-01-04T14:11:53.358Z,100042.38
2023-01-04T14:14:58.947Z,100034.53
2023-01-04T14:17:35.745Z,100030.09
2023-01-04T14:20:13.110Z,100026.66
2023-01-04T14:22:52.609Z,100038.88
2023-01-04T14:25:31.270Z,100023.16
2023-01-04T14:28:22.227Z,100027.56
2023-01-04T14:30:53.224Z,100030.13
2023-01-04T14:33:28.560Z,100026.56
2023-01-04T14:36:22.777Z,100022.19
2023-01-04T14:39:04.346Z,100018.66
2023-01-04T14:41:38.659Z,100016.84
2023-01-04T14:44:14.533Z,100020.22
2023-01-04T14:46:43.682Z,100005.31
2023-01-04T14:49:10.466Z,100004.41
2023-01-04T14:51:57.375Z,100002.75
2023-01-04T14:54:25.855Z,99986.06
2023-01-04T14:56:54.013Z,99979.03
2023-01-04T14:59:24.132Z,99972.94
2023-01-04T15:01:52.132Z,99973.03
2023-01-04T15:04:18.865Z,99968.63
2023-01-04T15:06:55.216Z,99967.94
2023-01-04T15:09:22.309Z,99959.06
2023-01-04T15:11:48.850Z,99963.44
2023-01-04T15:14:15.641Z,99956.47
2023-01-04T15:16:42.579Z,99951.22
2023-01-04T15:19:09.529Z,99945.97
2023-01-04T15:21:40.812Z,99946.00
2023-01-04T15:24:08.075Z,99938.16
2023-01-04T15:26:34.610Z,99943.47
2023-01-04T15:29:01.205Z,99930.41
2023-01-04T15:31:32.362Z,99937.47
2023-01-04T15:34:01.624Z,99933.94
2023-01-04T15:36:28.130Z,99929.59
2023-01-04T15:38:55.438Z,99926.13
2023-01-04T15:41:40.244Z,99921.06
2023-01-04T15:44:10.076Z,99926.34
2023-01-04T15:46:36.781Z,99912.38
2023-01-04T15:49:03.505Z,99905.50
2023-01-04T15:51:30.039Z,99899.38
2023-01-04T15:53:56.844Z,99899.50
2023-01-04T15:56:23.520Z,99896.94
2023-01-04T15:58:55.112Z,99900.41
2023-01-04T16:01:22.318Z,99896.94
2023-01-04T16:03:53.522Z,99892.66
2023-01-04T16:06:21.547Z,99881.41
2023-01-04T16:08:49.747Z,99883.16
2023-01-04T16:11:19.370Z,99868.31
2023-01-04T16:13:47.894Z,99857.88
2023-01-04T16:16:14.943Z,99859.72
2023-01-04T16:18:46.287Z,99850.13
2023-01-04T16:21:13.435Z,99859.75
2023-01-04T16:23:39.950Z,99865.06
2023-01-04T16:26:12.647Z,99872.91
2023-01-04T16:28:40.416Z,99869.44
2023-01-04T16:31:08.356Z,99856.22
2023-01-04T16:33:35.973Z,99857.13
2023-01-04T16:36:06.088Z,99849.19
2023-01-04T16:38:36.232Z,99837.00
2023-01-04T16:41:04.208Z,99831.69
2023-01-04T16:43:31.056Z,99825.66
2023-01-04T16:46:17.191Z,99828.38
2023-01-04T16:48:52.744Z,99824.09
2023-01-04T16:51:19.621Z,99825.91
2023-01-04T16:53:46.456Z,99824.97
2023-01-04T16:56:17.099Z,99820.66
2023-01-04T16:58:44.771Z,99818.94
2023-01-04T17:01:14.848Z,99812.91
2023-01-04T17:03:43.011Z,99805.06
2023-01-04T17:06:14.098Z,99803.34
2023-01-04T17:08:41.492Z,99803.41
2023-01-04T17:12:11.532Z,99802.56
2023-01-04T17:14:00.567Z,99795.59
2023-01-04T17:16:34.261Z,99799.13
2023-01-04T17:19:01.407Z,99794.78
2023-01-04T17:21:34.646Z,99780.81
2023-01-04T17:24:02.419Z,99777.34
2023-01-04T17:26:30.841Z,99772.13
2023-01-04T17:28:59.082Z,99769.47
2023-01-04T17:31:31.805Z,99774.69
2023-01-04T17:33:58.446Z,99765.97
2023-01-04T17:36:24.997Z,99759.88
2023-01-04T17:38:51.662Z,99766.00
2023-01-04T17:41:21.496Z,99764.25
2023-01-04T17:43:50.456Z,99752.03
2023-01-04T17:46:23.123Z,99752.91
2023-01-04T17:48:58.978Z,99757.28
2023-01-04T17:51:40.278Z,99752.06
2023-01-04T17:54:08.412Z,99744.22
2023-01-04T17:56:37.209Z,99743.31
2023-01-04T17:59:06.866Z,99741.59
2023-01-04T18:01:34.769Z,99729.31
2023-01-04T18:04:02.523Z,99726.75
2023-01-04T18:06:33.092Z,99712.75
2023-01-04T18:09:01.114Z,99718.00
2023-01-04T18:11:28.198Z,99731.13
2023-01-04T18:13:54.840Z,99705.78
2023-01-04T18:16:27.637Z,99709.31
2023-01-04T18:18:56.256Z,99696.19
2023-01-04T18:21:28.881Z,99704.06
2023-01-04T18:29:36.057Z,99690.06
2023-01-04T18:32:02.692Z,99682.22
2023-01-04T18:34:29.368Z,99674.34
2023-01-04T18:36:56.005Z,99671.72
2023-01-04T18:39:22.665Z,99671.72
2023-01-04T18:41:49.174Z,99677.84
2023-01-04T18:44:32.635Z,99669.97
2023-01-04T18:47:00.783Z,99658.59
2023-01-04T18:49:27.327Z,99668.22
2023-01-04T18:51:53.939Z,99662.13
2023-01-04T18:54:21.645Z,99647.25
2023-01-04T18:56:49.033Z,99654.25
2023-01-04T18:59:17.493Z,99655.09
2023-01-04T19:01:45.633Z,99662.09
2023-01-04T19:04:13.064Z,99654.22
2023-01-04T19:06:41.040Z,99647.25
2023-01-04T19:09:08.233Z,99658.59
2023-01-04T19:11:35.957Z,99649.88
2023-01-04T19:14:03.581Z,99644.63
2023-01-04T19:16:31.668Z,99644.63
2023-01-04T19:19:01.994Z,99635.88
2023-01-04T19:21:29.139Z,99631.50
2023-01-04T19:23:56.077Z,99637.66
2023-01-04T19:26:23.097Z,99630.63
2023-01-04T19:28:49.881Z,99622.75
2023-01-04T19:31:18.339Z,99617.53
2023-01-04T19:33:45.813Z,99611.41
2023-01-04T19:36:14.188Z,99609.66
2023-01-04T19:38:41.340Z,99608.78
2023-01-04T19:41:08.945Z,99610.50
2023-01-04T19:43:35.646Z,99606.13
2023-01-04T19:46:02.422Z,99607.91
2023-01-04T19:48:30.842Z,99599.13
2023-01-04T19:51:12.989Z,99603.53
2023-01-04T19:53:40.131Z,99600.88
2023-01-04T19:56:07.918Z,99607.91
2023-01-04T19:58:34.834Z,99602.63
2023-01-04T20:01:01.422Z,99603.50
2023-01-04T20:03:28.237Z,99598.25
2023-01-04T20:05:55.431Z,99592.13
2023-01-04T20:08:22.536Z,99589.50
2023-01-04T20:10:57.518Z,99574.63
2023-01-04T20:13:24.174Z,99586.88
2023-01-04T20:15:54.327Z,99573.75
2023-01-04T20:18:24.006Z,99571.13
2023-01-04T20:20:52.216Z,99569.38
2023-01-04T20:23:19.740Z,99568.50
2023-01-04T20:25:47.974Z,99572.00
2023-01-04T20:28:15.858Z,99572.00
2023-01-04T20:30:42.564Z,99572.00
2023-01-04T20:33:10.115Z,99567.66
2023-01-04T20:35:41.662Z,99565.03
2023-01-04T20:38:10.012Z,99570.25
2023-01-04T20:40:37.395Z,99564.13
2023-01-04T20:43:22.811Z,99558.00
2023-01-04T20:45:49.508Z,99550.97
2023-01-04T20:48:16.286Z,99533.47
2023-01-04T20:50:43.042Z,99536.94
2023-01-04T20:53:09.781Z,99529.91
2023-01-04T20:55:40.762Z,99530.81
2023-01-04T20:58:11.237Z,99507.16
2023-01-04T21:00:38.774Z,99507.13
2023-01-04T21:03:07.249Z,99508.00
2023-01-04T21:05:43.082Z,99492.25
2023-01-04T21:08:11.131Z,99494.88
2023-01-04T21:10:41.116Z,99498.34
2023-01-04T21:13:08.280Z,99502.69
2023-01-04T21:15:36.908Z,99504.47
2023-01-04T21:18:05.794Z,99507.94
2023-01-04T21:20:33.033Z,99507.91
2023-01-04T21:23:00.034Z,99505.28
2023-01-04T21:25:26.833Z,99505.25
2023-01-04T21:27:53.471Z,99504.38
2023-01-04T21:30:19.985Z,99508.72
2023-01-04T21:32:47.944Z,99489.47
2023-01-04T21:35:14.443Z,99492.09
2023-01-04T21:37:41.021Z,99488.59
2023-01-04T21:40:08.056Z,99494.72
2023-01-04T21:42:37.284Z,99479.88
2023-01-04T21:45:04.435Z,99474.53
2023-01-04T21:47:31.760Z,99485.94
2023-01-04T21:49:58.277Z,99478.06
2023-01-04T21:52:24.969Z,99473.69
2023-01-04T21:54:51.740Z,99461.41
2023-01-04T21:57:18.716Z,99462.28
2023-01-04T21:59:45.345Z,99468.44
2023-01-04T22:02:17.300Z,99458.78
2023-01-04T22:04:45.229Z,99459.66
2023-01-04T22:07:12.120Z,99456.16
2023-01-04T22:09:38.797Z,99445.69
2023-01-04T22:12:05.941Z,99443.09
2023-01-04T22:14:33.053Z,99428.19
2023-01-04T22:16:59.624Z,99423.84
2023-01-04T22:19:27.132Z,99408.09
2023-01-04T22:21:53.663Z,99417.72
2023-01-04T22:24:20.262Z,99415.09
2023-01-04T22:26:49.281Z,99412.41
2023-01-04T22:29:16.324Z,99408.00
2023-01-04T22:31:43.058Z,99402.78
2023-01-04T22:34:09.788Z,99405.38
2023-01-04T22:36:36.310Z,99402.72
2023-01-04T22:39:02.876Z,99377.31
2023-01-04T22:41:29.533Z,99383.44
2023-01-04T22:43:58.248Z,99392.16
2023-01-04T22:46:25.921Z,99392.13
2023-01-04T22:48:52.760Z,99385.16
2023-01-04T22:51:20.767Z,99377.19
2023-01-04T22:53:48.341Z,99375.44
2023-01-04T22:56:21.045Z,99375.44
2023-01-04T22:58:52.845Z,99365.81
2023-01-04T23:01:21.238Z,99363.06
2023-01-04T23:03:48.637Z,99371.72
2023-01-04T23:06:15.616Z,99371.69
2023-01-04T23:08:42.336Z,99375.97
2023-01-04T23:11:11.721Z,99361.03
2023-01-04T23:13:40.991Z,99358.25
2023-01-04T23:16:10.429Z,99361.69
2023-01-04T23:18:37.232Z,99358.91
2023-01-04T23:21:04.737Z,99365.94
2023-01-04T23:23:31.918Z,99363.28
2023-01-04T23:26:07.393Z,99365.16
2023-01-04T23:28:37.219Z,99352.19
2023-01-04T23:31:10.047Z,99365.41
2023-01-04T23:33:37.258Z,99358.44
2023-01-04T23:36:08.652Z,99357.63
2023-01-04T23:38:35.214Z,99340.97
2023-01-04T23:41:02.035Z,99343.59
2023-01-04T23:43:28.757Z,99338.28
2023-01-04T23:45:55.359Z,99333.00
2023-01-04T23:48:21.965Z,99330.22
2023-01-04T23:50:56.647Z,99335.34
2023-01-04T23:53:24.275Z,99331.63
2023-01-04T23:55:57.317Z,99315.78
2023-01-04T23:58:25.247Z,99305.06
